sensor_id;sensor_type;location;lat;lon;timestamp;P1;durP1;ratioP1;P2;durP2;ratioP2
75112;SDS011;63692;47.338;8.520;2024-01-15T05:16:22;26.88;;;11.25;;
75112;SDS011;63692;47.338;8.520;2024-01-15T05:18:48;28.42;;;11.80;;
75112;SDS011;63692;47.338;8.520;2024-01-15T06:28:17;18.52;;;7.95;;
75112;SDS011;63692;47.338;8.520;2024-01-15T07:06:42;18.27;;;8.88;;
75112;SDS011;63692;47.338;8.520;2024-01-15T07:09:08;19.65;;;8.75;;
75112;SDS011;63692;47.338;8.520;2024-01-15T07:11:34;20.45;;;8.57;;
75112;SDS011;63692;47.338;8.520;2024-01-15T07:19:04;18.85;;;8.75;;
75112;SDS011;63692;47.338;8.520;2024-01-15T07:21:30;19.23;;;8.38;;
75112;SDS011;63692;47.338;8.520;2024-01-15T07:23:56;18.52;;;8.55;;
75112;SDS011;63692;47.338;8.520;2024-01-15T07:31:24;20.88;;;8.73;;
75112;SDS011;63692;47.338;8.520;2024-01-15T07:33:50;17.05;;;8.05;;
75112;SDS011;63692;47.338;8.520;2024-01-15T07:36:16;16.30;;;7.70;;
75112;SDS011;63692;47.338;8.520;2024-01-15T07:38:41;21.88;;;7.97;;
75112;SDS011;63692;47.338;8.520;2024-01-15T07:41:08;17.40;;;7.97;;
75112;SDS011;63692;47.338;8.520;2024-01-15T07:43:33;14.20;;;6.95;;
75112;SDS011;63692;47.338;8.520;2024-01-15T07:45:59;17.00;;;7.40;;
75112;SDS011;63692;47.338;8.520;2024-01-15T07:48:25;15.85;;;7.57;;
75112;SDS011;63692;47.338;8.520;2024-01-15T07:50:50;17.45;;;7.85;;
75112;SDS011;63692;47.338;8.520;2024-01-15T07:53:16;16.50;;;7.07;;
75112;SDS011;63692;47.338;8.520;2024-01-15T07:55:41;17.45;;;7.43;;
75112;SDS011;63692;47.338;8.520;2024-01-15T08:00:37;17.85;;;8.23;;
75112;SDS011;63692;47.338;8.520;2024-01-15T08:03:02;17.45;;;8.57;;
75112;SDS011;63692;47.338;8.520;2024-01-15T08:05:28;16.17;;;7.90;;
75112;SDS011;63692;47.338;8.520;2024-01-15T08:07:54;17.30;;;8.02;;
75112;SDS011;63692;47.338;8.520;2024-01-15T08:10:20;16.85;;;8.07;;
75112;SDS011;63692;47.338;8.520;2024-01-15T08:12:45;18.00;;;8.38;;
75112;SDS011;63692;47.338;8.520;2024-01-15T08:15:11;18.05;;;8.07;;
75112;SDS011;63692;47.338;8.520;2024-01-15T08:17:36;18.15;;;8.27;;
75112;SDS011;63692;47.338;8.520;2024-01-15T08:20:02;19.15;;;8.05;;
75112;SDS011;63692;47.338;8.520;2024-01-15T08:22:29;14.25;;;7.57;;
75112;SDS011;63692;47.338;8.520;2024-01-15T08:24:55;18.52;;;8.68;;
75112;SDS011;63692;47.338;8.520;2024-01-15T08:27:21;17.42;;;7.93;;
75112;SDS011;63692;47.338;8.520;2024-01-15T08:29:46;18.77;;;8.05;;
75112;SDS011;63692;47.338;8.520;2024-01-15T08:32:12;15.88;;;8.02;;
75112;SDS011;63692;47.338;8.520;2024-01-15T08:34:40;18.42;;;8.05;;
75112;SDS011;63692;47.338;8.520;2024-01-15T08:37:06;18.02;;;8.25;;
75112;SDS011;63692;47.338;8.520;2024-01-15T08:39:32;20.00;;;8.98;;
75112;SDS011;63692;47.338;8.520;2024-01-15T08:41:58;14.52;;;7.20;;
75112;SDS011;63692;47.338;8.520;2024-01-15T08:44:23;17.88;;;8.43;;
75112;SDS011;63692;47.338;8.520;2024-01-15T08:46:49;16.77;;;7.82;;
75112;SDS011;63692;47.338;8.520;2024-01-15T08:49:14;16.52;;;8.38;;
75112;SDS011;63692;47.338;8.520;2024-01-15T08:51:40;15.82;;;7.82;;
75112;SDS011;63692;47.338;8.520;2024-01-15T08:54:06;18.77;;;8.45;;
75112;SDS011;63692;47.338;8.520;2024-01-15T08:56:34;17.20;;;7.32;;
75112;SDS011;63692;47.338;8.520;2024-01-15T08:58:59;21.55;;;7.65;;
75112;SDS011;63692;47.338;8.520;2024-01-15T09:01:25;15.77;;;7.78;;
75112;SDS011;63692;47.338;8.520;2024-01-15T09:03:51;15.23;;;6.95;;
75112;SDS011;63692;47.338;8.520;2024-01-15T09:06:16;15.98;;;7.25;;
75112;SDS011;63692;47.338;8.520;2024-01-15T09:08:42;14.40;;;6.93;;
75112;SDS011;63692;47.338;8.520;2024-01-15T09:11:08;15.05;;;6.95;;
75112;SDS011;63692;47.338;8.520;2024-01-15T09:13:33;15.85;;;7.72;;
75112;SDS011;63692;47.338;8.520;2024-01-15T09:15:59;14.68;;;6.60;;
75112;SDS011;63692;47.338;8.520;2024-01-15T09:18:25;14.38;;;7.40;;
75112;SDS011;63692;47.338;8.520;2024-01-15T09:20:50;14.80;;;7.40;;
75112;SDS011;63692;47.338;8.520;2024-01-15T09:23:16;13.07;;;6.70;;
75112;SDS011;63692;47.338;8.520;2024-01-15T09:25:42;13.40;;;6.57;;
75112;SDS011;63692;47.338;8.520;2024-01-15T09:28:07;15.15;;;6.90;;
75112;SDS011;63692;47.338;8.520;2024-01-15T09:30:33;15.93;;;7.03;;
75112;SDS011;63692;47.338;8.520;2024-01-15T09:32:58;14.70;;;6.72;;
75112;SDS011;63692;47.338;8.520;2024-01-15T09:35:24;13.65;;;6.50;;
75112;SDS011;63692;47.338;8.520;2024-01-15T09:37:50;14.57;;;6.47;;
75112;SDS011;63692;47.338;8.520;2024-01-15T09:40:15;12.50;;;6.40;;
75112;SDS011;63692;47.338;8.520;2024-01-15T09:42:41;14.93;;;6.25;;
75112;SDS011;63692;47.338;8.520;2024-01-15T09:45:07;15.35;;;6.32;;
75112;SDS011;63692;47.338;8.520;2024-01-15T09:47:34;15.15;;;5.70;;
75112;SDS011;63692;47.338;8.520;2024-01-15T09:50:01;12.15;;;6.03;;
75112;SDS011;63692;47.338;8.520;2024-01-15T09:52:28;12.57;;;5.63;;
75112;SDS011;63692;47.338;8.520;2024-01-15T09:54:56;15.68;;;6.65;;
75112;SDS011;63692;47.338;8.520;2024-01-15T09:57:23;12.75;;;6.38;;
75112;SDS011;63692;47.338;8.520;2024-01-15T09:59:50;12.50;;;5.88;;
75112;SDS011;63692;47.338;8.520;2024-01-15T10:02:18;12.68;;;5.93;;
75112;SDS011;63692;47.338;8.520;2024-01-15T10:04:44;12.70;;;6.20;;
75112;SDS011;63692;47.338;8.520;2024-01-15T10:07:11;13.23;;;6.63;;
75112;SDS011;63692;47.338;8.520;2024-01-15T10:09:44;12.77;;;6.35;;
75112;SDS011;63692;47.338;8.520;2024-01-15T10:12:10;13.77;;;5.75;;
75112;SDS011;63692;47.338;8.520;2024-01-15T10:14:36;13.00;;;6.40;;
75112;SDS011;63692;47.338;8.520;2024-01-15T10:17:11;13.43;;;5.78;;
75112;SDS011;63692;47.338;8.520;2024-01-15T10:19:38;11.50;;;6.03;;
75112;SDS011;63692;47.338;8.520;2024-01-15T10:22:06;14.88;;;7.28;;
75112;SDS011;63692;47.338;8.520;2024-01-15T10:24:34;12.40;;;5.57;;
75112;SDS011;63692;47.338;8.520;2024-01-15T10:27:07;11.52;;;5.65;;
75112;SDS011;63692;47.338;8.520;2024-01-15T10:29:34;12.55;;;6.00;;
75112;SDS011;63692;47.338;8.520;2024-01-15T10:31:59;11.98;;;5.65;;
75112;SDS011;63692;47.338;8.520;2024-01-15T10:34:26;13.75;;;5.85;;
75112;SDS011;63692;47.338;8.520;2024-01-15T10:36:52;11.52;;;5.63;;
75112;SDS011;63692;47.338;8.520;2024-01-15T10:39:23;11.05;;;5.15;;
75112;SDS011;63692;47.338;8.520;2024-01-15T10:41:50;11.57;;;5.43;;
75112;SDS011;63692;47.338;8.520;2024-01-15T10:44:18;12.38;;;5.57;;
75112;SDS011;63692;47.338;8.520;2024-01-15T10:46:44;11.50;;;5.38;;
75112;SDS011;63692;47.338;8.520;2024-01-15T10:49:13;15.52;;;7.47;;
75112;SDS011;63692;47.338;8.520;2024-01-15T10:51:39;14.27;;;6.55;;
75112;SDS011;63692;47.338;8.520;2024-01-15T10:54:07;10.63;;;5.85;;
75112;SDS011;63692;47.338;8.520;2024-01-15T10:56:36;11.77;;;5.28;;
75112;SDS011;63692;47.338;8.520;2024-01-15T10:59:03;12.75;;;5.45;;
75112;SDS011;63692;47.338;8.520;2024-01-15T11:01:29;10.30;;;4.82;;
75112;SDS011;63692;47.338;8.520;2024-01-15T11:03:56;14.07;;;5.20;;
75112;SDS011;63692;47.338;8.520;2024-01-15T11:08:50;9.13;;;4.97;;
75112;SDS011;63692;47.338;8.520;2024-01-15T11:13:46;9.90;;;4.60;;
75112;SDS011;63692;47.338;8.520;2024-01-15T11:16:15;9.68;;;4.32;;
75112;SDS011;63692;47.338;8.520;2024-01-15T11:18:41;9.35;;;4.75;;
75112;SDS011;63692;47.338;8.520;2024-01-15T11:28:59;12.38;;;5.03;;
75112;SDS011;63692;47.338;8.520;2024-01-15T11:37:04;7.80;;;4.05;;
75112;SDS011;63692;47.338;8.520;2024-01-15T11:44:23;10.82;;;3.95;;
75112;SDS011;63692;47.338;8.520;2024-01-15T11:46:59;8.60;;;4.55;;
75112;SDS011;63692;47.338;8.520;2024-01-15T11:52:37;9.18;;;3.97;;
75112;SDS011;63692;47.338;8.520;2024-01-15T11:57:50;8.35;;;3.97;;
75112;SDS011;63692;47.338;8.520;2024-01-15T12:00:17;6.53;;;3.47;;
75112;SDS011;63692;47.338;8.520;2024-01-15T12:05:11;11.38;;;4.65;;
75112;SDS011;63692;47.338;8.520;2024-01-15T12:07:41;9.57;;;4.13;;
75112;SDS011;63692;47.338;8.520;2024-01-15T12:10:11;8.75;;;4.32;;
75112;SDS011;63692;47.338;8.520;2024-01-15T12:15:13;10.95;;;4.45;;
75112;SDS011;63692;47.338;8.520;2024-01-15T12:17:40;11.75;;;4.63;;
75112;SDS011;63692;47.338;8.520;2024-01-15T12:20:05;9.02;;;4.07;;
75112;SDS011;63692;47.338;8.520;2024-01-15T12:22:31;11.13;;;4.85;;
75112;SDS011;63692;47.338;8.520;2024-01-15T12:24:57;8.57;;;4.35;;
75112;SDS011;63692;47.338;8.520;2024-01-15T12:27:22;7.35;;;4.13;;
75112;SDS011;63692;47.338;8.520;2024-01-15T12:29:49;13.18;;;4.68;;
75112;SDS011;63692;47.338;8.520;2024-01-15T12:32:14;10.30;;;4.93;;
75112;SDS011;63692;47.338;8.520;2024-01-15T12:34:40;9.70;;;4.97;;
75112;SDS011;63692;47.338;8.520;2024-01-15T12:37:09;10.80;;;4.43;;
75112;SDS011;63692;47.338;8.520;2024-01-15T12:39:36;8.30;;;4.53;;
75112;SDS011;63692;47.338;8.520;2024-01-15T12:42:01;10.43;;;4.70;;
75112;SDS011;63692;47.338;8.520;2024-01-15T12:44:28;11.75;;;5.35;;
75112;SDS011;63692;47.338;8.520;2024-01-15T12:46:54;13.45;;;5.13;;
75112;SDS011;63692;47.338;8.520;2024-01-15T12:49:20;9.85;;;4.75;;
75112;SDS011;63692;47.338;8.520;2024-01-15T12:51:56;11.07;;;5.00;;
75112;SDS011;63692;47.338;8.520;2024-01-15T12:54:22;10.90;;;5.03;;
75112;SDS011;63692;47.338;8.520;2024-01-15T12:56:51;9.15;;;5.15;;
75112;SDS011;63692;47.338;8.520;2024-01-15T13:01:48;10.07;;;4.95;;
75112;SDS011;63692;47.338;8.520;2024-01-15T13:04:23;10.00;;;5.10;;
75112;SDS011;63692;47.338;8.520;2024-01-15T13:06:49;9.43;;;5.38;;
75112;SDS011;63692;47.338;8.520;2024-01-15T13:09:16;9.43;;;5.25;;
75112;SDS011;63692;47.338;8.520;2024-01-15T13:11:42;10.68;;;5.10;;
75112;SDS011;63692;47.338;8.520;2024-01-15T13:14:11;11.20;;;5.22;;
75112;SDS011;63692;47.338;8.520;2024-01-15T13:16:39;9.55;;;4.75;;
75112;SDS011;63692;47.338;8.520;2024-01-15T13:19:07;11.82;;;5.82;;
75112;SDS011;63692;47.338;8.520;2024-01-15T13:21:35;12.27;;;5.80;;
75112;SDS011;63692;47.338;8.520;2024-01-15T13:24:02;9.40;;;5.07;;
75112;SDS011;63692;47.338;8.520;2024-01-15T13:26:30;10.02;;;5.45;;
75112;SDS011;63692;47.338;8.520;2024-01-15T13:29:04;9.70;;;4.88;;
75112;SDS011;63692;47.338;8.520;2024-01-15T13:31:30;12.15;;;6.45;;
75112;SDS011;63692;47.338;8.520;2024-01-15T13:33:57;12.90;;;5.22;;
75112;SDS011;63692;47.338;8.520;2024-01-15T13:36:23;11.02;;;5.55;;
75112;SDS011;63692;47.338;8.520;2024-01-15T13:38:49;11.13;;;6.15;;
75112;SDS011;63692;47.338;8.520;2024-01-15T13:41:15;10.23;;;5.20;;
75112;SDS011;63692;47.338;8.520;2024-01-15T13:43:43;12.85;;;5.65;;
75112;SDS011;63692;47.338;8.520;2024-01-15T13:46:14;11.45;;;5.68;;
75112;SDS011;63692;47.338;8.520;2024-01-15T13:48:40;11.52;;;5.65;;
75112;SDS011;63692;47.338;8.520;2024-01-15T13:51:06;14.32;;;6.45;;
75112;SDS011;63692;47.338;8.520;2024-01-15T13:53:31;12.65;;;6.13;;
75112;SDS011;63692;47.338;8.520;2024-01-15T13:55:57;11.02;;;5.88;;
75112;SDS011;63692;47.338;8.520;2024-01-15T13:58:22;11.63;;;5.55;;
75112;SDS011;63692;47.338;8.520;2024-01-15T14:00:50;13.48;;;6.22;;
75112;SDS011;63692;47.338;8.520;2024-01-15T14:03:16;12.23;;;5.90;;
75112;SDS011;63692;47.338;8.520;2024-01-15T14:05:41;13.57;;;6.10;;
75112;SDS011;63692;47.338;8.520;2024-01-15T14:08:07;23.15;;;9.77;;
75112;SDS011;63692;47.338;8.520;2024-01-15T14:10:33;16.73;;;8.00;;
75112;SDS011;63692;47.338;8.520;2024-01-15T14:12:59;15.48;;;7.25;;
75112;SDS011;63692;47.338;8.520;2024-01-15T14:15:24;13.23;;;6.18;;
75112;SDS011;63692;47.338;8.520;2024-01-15T14:17:50;13.02;;;6.57;;
75112;SDS011;63692;47.338;8.520;2024-01-15T14:20:16;15.82;;;6.97;;
75112;SDS011;63692;47.338;8.520;2024-01-15T14:22:42;12.70;;;6.50;;
75112;SDS011;63692;47.338;8.520;2024-01-15T14:25:08;13.02;;;6.25;;
75112;SDS011;63692;47.338;8.520;2024-01-15T14:27:34;16.50;;;7.60;;
75112;SDS011;63692;47.338;8.520;2024-01-15T14:30:01;14.15;;;7.10;;
75112;SDS011;63692;47.338;8.520;2024-01-15T14:32:28;14.55;;;7.47;;
75112;SDS011;63692;47.338;8.520;2024-01-15T14:34:53;15.23;;;7.40;;
75112;SDS011;63692;47.338;8.520;2024-01-15T14:37:19;17.23;;;7.60;;
75112;SDS011;63692;47.338;8.520;2024-01-15T14:39:45;16.25;;;7.72;;
75112;SDS011;63692;47.338;8.520;2024-01-15T14:42:11;13.80;;;6.85;;
75112;SDS011;63692;47.338;8.520;2024-01-15T14:44:37;15.27;;;7.30;;
75112;SDS011;63692;47.338;8.520;2024-01-15T14:47:05;14.93;;;6.68;;
75112;SDS011;63692;47.338;8.520;2024-01-15T14:49:31;13.07;;;7.22;;
75112;SDS011;63692;47.338;8.520;2024-01-15T14:51:57;14.00;;;7.05;;
75112;SDS011;63692;47.338;8.520;2024-01-15T14:54:22;14.15;;;7.28;;
75112;SDS011;63692;47.338;8.520;2024-01-15T14:56:48;14.40;;;7.20;;
75112;SDS011;63692;47.338;8.520;2024-01-15T14:59:14;14.43;;;6.82;;
75112;SDS011;63692;47.338;8.520;2024-01-15T15:01:39;11.98;;;6.43;;
75112;SDS011;63692;47.338;8.520;2024-01-15T15:04:06;14.93;;;6.90;;
75112;SDS011;63692;47.338;8.520;2024-01-15T15:06:33;13.70;;;7.43;;
75112;SDS011;63692;47.338;8.520;2024-01-15T15:08:58;16.85;;;7.22;;
75112;SDS011;63692;47.338;8.520;2024-01-15T15:11:25;13.15;;;7.03;;
75112;SDS011;63692;47.338;8.520;2024-01-15T15:13:51;15.48;;;7.72;;
75112;SDS011;63692;47.338;8.520;2024-01-15T15:16:17;16.67;;;8.13;;
75112;SDS011;63692;47.338;8.520;2024-01-15T15:18:42;14.50;;;7.53;;
75112;SDS011;63692;47.338;8.520;2024-01-15T15:21:08;17.55;;;8.40;;
75112;SDS011;63692;47.338;8.520;2024-01-15T15:23:34;15.88;;;7.72;;
75112;SDS011;63692;47.338;8.520;2024-01-15T15:26:00;16.45;;;7.22;;
75112;SDS011;63692;47.338;8.520;2024-01-15T15:28:26;15.27;;;7.65;;
75112;SDS011;63692;47.338;8.520;2024-01-15T15:30:52;17.90;;;8.25;;
75112;SDS011;63692;47.338;8.520;2024-01-15T15:33:18;15.93;;;7.38;;
75112;SDS011;63692;47.338;8.520;2024-01-15T15:35:43;14.55;;;7.70;;
75112;SDS011;63692;47.338;8.520;2024-01-15T15:38:09;17.10;;;9.18;;
75112;SDS011;63692;47.338;8.520;2024-01-15T15:40:35;19.52;;;9.93;;
75112;SDS011;63692;47.338;8.520;2024-01-15T15:43:00;22.02;;;10.50;;
75112;SDS011;63692;47.338;8.520;2024-01-15T15:45:27;24.60;;;11.32;;
75112;SDS011;63692;47.338;8.520;2024-01-15T15:47:52;25.30;;;12.13;;
75112;SDS011;63692;47.338;8.520;2024-01-15T15:50:18;25.65;;;12.32;;
75112;SDS011;63692;47.338;8.520;2024-01-15T15:52:43;30.88;;;13.32;;
75112;SDS011;63692;47.338;8.520;2024-01-15T15:55:09;25.00;;;12.13;;
75112;SDS011;63692;47.338;8.520;2024-01-15T15:57:35;24.58;;;11.98;;
75112;SDS011;63692;47.338;8.520;2024-01-15T16:00:01;27.13;;;12.25;;
75112;SDS011;63692;47.338;8.520;2024-01-15T16:02:26;24.90;;;11.70;;
75112;SDS011;63692;47.338;8.520;2024-01-15T16:04:52;27.23;;;12.82;;
75112;SDS011;63692;47.338;8.520;2024-01-15T16:07:18;27.60;;;12.30;;
75112;SDS011;63692;47.338;8.520;2024-01-15T16:09:44;30.63;;;13.23;;
75112;SDS011;63692;47.338;8.520;2024-01-15T16:12:10;29.45;;;13.95;;
75112;SDS011;63692;47.338;8.520;2024-01-15T16:14:37;28.67;;;13.50;;
75112;SDS011;63692;47.338;8.520;2024-01-15T16:17:02;24.00;;;12.15;;
75112;SDS011;63692;47.338;8.520;2024-01-15T16:19:28;26.05;;;12.77;;
75112;SDS011;63692;47.338;8.520;2024-01-15T16:21:54;28.45;;;13.13;;
75112;SDS011;63692;47.338;8.520;2024-01-15T16:24:19;24.25;;;11.65;;
75112;SDS011;63692;47.338;8.520;2024-01-15T16:26:46;26.75;;;11.73;;
75112;SDS011;63692;47.338;8.520;2024-01-15T16:29:12;26.77;;;12.20;;
75112;SDS011;63692;47.338;8.520;2024-01-15T16:31:38;30.00;;;12.95;;
75112;SDS011;63692;47.338;8.520;2024-01-15T16:34:03;26.35;;;11.73;;
75112;SDS011;63692;47.338;8.520;2024-01-15T16:36:29;25.17;;;11.48;;
75112;SDS011;63692;47.338;8.520;2024-01-15T16:38:54;24.50;;;11.00;;
75112;SDS011;63692;47.338;8.520;2024-01-15T16:41:20;27.35;;;11.82;;
75112;SDS011;63692;47.338;8.520;2024-01-15T16:43:46;23.25;;;11.40;;
75112;SDS011;63692;47.338;8.520;2024-01-15T16:46:13;20.73;;;10.18;;
75112;SDS011;63692;47.338;8.520;2024-01-15T16:48:39;23.95;;;10.93;;
75112;SDS011;63692;47.338;8.520;2024-01-15T16:51:05;22.77;;;10.45;;
75112;SDS011;63692;47.338;8.520;2024-01-15T16:53:30;19.45;;;9.82;;
75112;SDS011;63692;47.338;8.520;2024-01-15T16:55:56;18.42;;;9.07;;
75112;SDS011;63692;47.338;8.520;2024-01-15T16:58:22;19.65;;;8.90;;
75112;SDS011;63692;47.338;8.520;2024-01-15T17:00:48;16.58;;;8.32;;
75112;SDS011;63692;47.338;8.520;2024-01-15T17:03:13;16.40;;;8.13;;
75112;SDS011;63692;47.338;8.520;2024-01-15T17:05:39;15.38;;;7.82;;
75112;SDS011;63692;47.338;8.520;2024-01-15T17:08:05;17.27;;;8.70;;
75112;SDS011;63692;47.338;8.520;2024-01-15T17:10:34;16.23;;;7.72;;
75112;SDS011;63692;47.338;8.520;2024-01-15T17:12:59;15.48;;;6.75;;
75112;SDS011;63692;47.338;8.520;2024-01-15T17:15:27;15.02;;;6.70;;
75112;SDS011;63692;47.338;8.520;2024-01-15T17:17:53;11.57;;;5.60;;
75112;SDS011;63692;47.338;8.520;2024-01-15T17:20:19;9.82;;;5.03;;
75112;SDS011;63692;47.338;8.520;2024-01-15T17:22:45;11.25;;;5.47;;
75112;SDS011;63692;47.338;8.520;2024-01-15T17:25:11;10.93;;;5.45;;
75112;SDS011;63692;47.338;8.520;2024-01-15T17:27:37;10.60;;;5.05;;
75112;SDS011;63692;47.338;8.520;2024-01-15T17:30:04;11.68;;;4.90;;
75112;SDS011;63692;47.338;8.520;2024-01-15T17:32:30;9.95;;;4.95;;
75112;SDS011;63692;47.338;8.520;2024-01-15T17:34:56;9.35;;;4.43;;
75112;SDS011;63692;47.338;8.520;2024-01-15T17:37:22;7.72;;;3.83;;
75112;SDS011;63692;47.338;8.520;2024-01-15T17:39:47;8.10;;;3.97;;
75112;SDS011;63692;47.338;8.520;2024-01-15T17:42:13;14.57;;;4.30;;
75112;SDS011;63692;47.338;8.520;2024-01-15T17:44:39;8.23;;;4.07;;
75112;SDS011;63692;47.338;8.520;2024-01-15T17:47:04;8.57;;;4.18;;
75112;SDS011;63692;47.338;8.520;2024-01-15T17:49:30;9.65;;;4.40;;
75112;SDS011;63692;47.338;8.520;2024-01-15T17:51:56;8.48;;;4.13;;
75112;SDS011;63692;47.338;8.520;2024-01-15T17:54:22;7.63;;;3.63;;
75112;SDS011;63692;47.338;8.520;2024-01-15T17:56:48;9.25;;;3.42;;
75112;SDS011;63692;47.338;8.520;2024-01-15T17:59:13;5.88;;;3.67;;
75112;SDS011;63692;47.338;8.520;2024-01-15T18:01:39;8.48;;;3.83;;
75112;SDS011;63692;47.338;8.520;2024-01-15T18:04:08;6.47;;;3.30;;
75112;SDS011;63692;47.338;8.520;2024-01-15T18:06:34;6.22;;;3.33;;
75112;SDS011;63692;47.338;8.520;2024-01-15T18:09:00;7.47;;;3.60;;
75112;SDS011;63692;47.338;8.520;2024-01-15T18:11:26;8.25;;;3.67;;
75112;SDS011;63692;47.338;8.520;2024-01-15T18:16:17;5.93;;;3.10;;
75112;SDS011;63692;47.338;8.520;2024-01-15T19:54:22;12.70;;;6.60;;
75112;SDS011;63692;47.338;8.520;2024-01-15T19:56:48;13.43;;;6.18;;
